Time;durP1;ratioP1;P1;durP2;ratioP2;P2;SDS_P1;SDS_P2;PMS_P1;PMS_P2;Temp;Humidity;BMP_temperature;BMP_pressure;BME280_temperature;BME280_humidity;BME280_pressure;Samples;Min_cycle;Max_cycle;Signal;HPM_P1;HPM_P2
2022/03/27 00:07:33;;;;;;;13.57;4.75;;;;;;;;;;20910258;28;20461;-59
2022/03/27 00:17:34;;;;;;;8.57;4.85;;;;;;;;;;20926060;28;20076;-57
2022/03/27 00:27:36;;;;;;;11.77;4.38;;;;;;;;;;20924397;28;20067;-57
2022/03/27 00:37:39;;;;;;;11.48;4.35;;;;;;;;;;20922967;28;20044;-58
2022/03/27 00:47:40;;;;;;;9.52;5.32;;;;;;;;;;20923012;28;20092;-59
2022/03/27 00:57:42;;;;;;;10.95;4.82;;;;;;;;;;20921831;28;20049;-58
2022/03/27 01:07:45;;;;;;;10.32;5.30;;;;;;;;;;20920692;28;20061;-54
2022/03/27 01:17:47;;;;;;;12.18;4.70;;;;;;;;;;20920440;28;20539;-54
2022/03/27 01:27:49;;;;;;;7.40;5.05;;;;;;;;;;20918477;28;20075;-57
2022/03/27 01:37:51;;;;;;;13.15;5.78;;;;;;;;;;20919454;28;20418;-53
2022/03/27 01:47:53;;;;;;;10.13;5.57;;;;;;;;;;20917799;28;20417;-57
2022/03/27 01:57:55;;;;;;;12.45;6.43;;;;;;;;;;20917008;28;20059;-58
2022/03/27 02:07:57;;;;;;;12.63;6.43;;;;;;;;;;20915897;28;20103;-56
2022/03/27 02:18:01;;;;;;;12.38;6.18;;;;;;;;;;20914942;28;20076;-57
2022/03/27 02:28:04;;;;;;;8.38;3.53;;;;;;;;;;20914361;28;20057;-54
2022/03/27 02:38:08;;;;;;;6.43;3.03;;;;;;;;;;20912766;28;20093;-57
2022/03/27 02:48:15;;;;;;;5.85;3.50;;;;;;;;;;20912371;28;20063;-58
2022/03/27 02:58:23;;;;;;;6.78;3.28;;;;;;;;;;20912128;28;20045;-58
2022/03/27 03:08:29;;;;;;;4.50;2.40;;;;;;;;;;20911761;28;20049;-57
2022/03/27 03:18:37;;;;;;;3.65;1.92;;;;;;;;;;20912203;28;20049;-58
2022/03/27 03:28:43;;;;;;;4.72;2.05;;;;;;;;;;20910942;28;20057;-57
2022/03/27 03:38:48;;;;;;;3.50;1.35;;;;;;;;;;20911010;28;20436;-54
2022/03/27 03:49:09;;;;;;;4.00;1.58;;;;;;;;;;20921925;28;20048;-57
2022/03/27 03:59:36;;;;;;;6.13;1.95;;;;;;;;;;20926844;28;20048;-58
2022/03/27 04:09:49;;;;;;;2.13;1.05;;;;;;;;;;20925852;28;20087;-58
2022/03/27 04:19:56;;;;;;;3.10;1.25;;;;;;;;;;20924788;28;20053;-56
2022/03/27 04:30:04;;;;;;;7.13;1.98;;;;;;;;;;20923609;28;20044;-57
2022/03/27 04:40:13;;;;;;;4.13;1.60;;;;;;;;;;20924429;28;20052;-58
2022/03/27 04:50:29;;;;;;;3.75;1.90;;;;;;;;;;20922136;28;20072;-57
2022/03/27 05:00:37;;;;;;;5.38;1.55;;;;;;;;;;20920967;28;20045;-57
2022/03/27 05:10:43;;;;;;;4.28;2.22;;;;;;;;;;20920665;28;20041;-56
2022/03/27 05:20:46;;;;;;;5.28;2.25;;;;;;;;;;20918017;28;20064;-58
2022/03/27 05:30:49;;;;;;;5.38;1.98;;;;;;;;;;20919489;28;20169;-56
2022/03/27 05:40:52;;;;;;;2.88;1.85;;;;;;;;;;20918469;28;20056;-58
2022/03/27 05:50:55;;;;;;;3.30;1.90;;;;;;;;;;20918731;28;20059;-57
2022/03/27 06:00:57;;;;;;;5.60;2.28;;;;;;;;;;20916774;28;20050;-58
2022/03/27 06:10:59;;;;;;;6.03;3.00;;;;;;;;;;20915612;28;20382;-58
2022/03/27 06:21:02;;;;;;;3.90;2.70;;;;;;;;;;20916124;28;20063;-55
2022/03/27 06:31:06;;;;;;;4.00;2.70;;;;;;;;;;20914405;28;20064;-55
2022/03/27 06:41:11;;;;;;;4.53;3.33;;;;;;;;;;20914892;28;20049;-57
2022/03/27 06:51:13;;;;;;;5.55;3.45;;;;;;;;;;20914787;28;20642;-57
2022/03/27 07:11:37;;;;;;;10.15;3.00;;;;;;;;;;20912559;28;20045;-58
2022/03/27 07:21:40;;;;;;;7.65;3.53;;;;;;;;;;20911840;28;20163;-57
2022/03/27 07:31:42;;;;;;;6.18;4.18;;;;;;;;;;20911774;28;20056;-58
2022/03/27 07:41:45;;;;;;;7.60;4.03;;;;;;;;;;20911553;28;20516;-59
2022/03/27 07:51:48;;;;;;;7.93;4.55;;;;;;;;;;20909629;28;20045;-59
2022/03/27 08:01:52;;;;;;;6.47;4.30;;;;;;;;;;20910220;28;20101;-58
2022/03/27 08:11:55;;;;;;;15.80;4.05;;;;;;;;;;20909190;28;20494;-56
2022/03/27 08:21:58;;;;;;;13.57;5.00;;;;;;;;;;20907039;28;20063;-58
2022/03/27 08:32:01;;;;;;;9.15;4.80;;;;;;;;;;20913162;28;20053;-56
2022/03/27 08:42:03;;;;;;;7.53;4.72;;;;;;;;;;20921897;28;20504;-56
2022/03/27 08:52:17;;;;;;;11.68;4.22;;;;;;;;;;20919574;28;20045;-55
2022/03/27 09:02:23;;;;;;;10.60;5.07;;;;;;;;;;20911335;28;20055;-59
2022/03/27 09:12:25;;;;;;;6.70;4.32;;;;;;;;;;20914792;28;20040;-55
2022/03/27 09:22:32;;;;;;;8.48;4.78;;;;;;;;;;20910524;28;20140;-55
2022/03/27 09:32:42;;;;;;;10.10;5.05;;;;;;;;;;20909672;28;20103;-53
2022/03/27 09:42:47;;;;;;;12.73;4.90;;;;;;;;;;20910918;28;20049;-53
2022/03/27 09:52:49;;;;;;;8.13;4.50;;;;;;;;;;20908422;28;20045;-55
2022/03/27 10:02:51;;;;;;;10.25;5.03;;;;;;;;;;20910476;28;20102;-57
2022/03/27 10:12:57;;;;;;;11.18;4.70;;;;;;;;;;20910882;28;20144;-55
2022/03/27 10:23:08;;;;;;;10.10;5.05;;;;;;;;;;20911353;28;20136;-54
2022/03/27 10:33:11;;;;;;;11.15;5.45;;;;;;;;;;20912729;28;20451;-55
2022/03/27 10:43:25;;;;;;;14.43;7.30;;;;;;;;;;20911870;28;20049;-54
2022/03/27 10:53:28;;;;;;;11.80;5.20;;;;;;;;;;20910300;28;20053;-56
2022/03/27 11:03:45;;;;;;;11.90;4.38;;;;;;;;;;20912031;28;20053;-54
2022/03/27 11:13:48;;;;;;;9.20;4.72;;;;;;;;;;20910890;28;20064;-55
2022/03/27 11:23:50;;;;;;;10.45;4.68;;;;;;;;;;20910719;28;20136;-57
2022/03/27 11:34:07;;;;;;;12.70;5.55;;;;;;;;;;20909638;28;20136;-58
2022/03/27 11:44:16;;;;;;;10.82;5.00;;;;;;;;;;20908503;28;20136;-55
2022/03/27 11:54:19;;;;;;;45.35;26.35;;;;;;;;;;20910107;28;20053;-55
2022/03/27 12:04:21;;;;;;;10.60;5.40;;;;;;;;;;20911057;28;20551;-55
2022/03/27 12:14:23;;;;;;;24.40;17.27;;;;;;;;;;20925028;28;20566;-56
2022/03/27 12:24:40;;;;;;;40.88;24.73;;;;;;;;;;20923633;28;20111;-53
2022/03/27 12:34:43;;;;;;;14.73;6.22;;;;;;;;;;20922468;28;20045;-58
2022/03/27 12:44:49;;;;;;;10.82;5.00;;;;;;;;;;20922984;28;20452;-58
2022/03/27 12:54:54;;;;;;;14.25;6.30;;;;;;;;;;20922088;28;20049;-57
2022/03/27 13:04:57;;;;;;;10.23;4.70;;;;;;;;;;20920855;28;20061;-58
2022/03/27 13:15:02;;;;;;;10.68;5.18;;;;;;;;;;20919345;28;20045;-58
2022/03/27 13:25:05;;;;;;;16.58;5.75;;;;;;;;;;20919079;28;20053;-58
2022/03/27 13:35:06;;;;;;;11.60;5.45;;;;;;;;;;20918370;28;20178;-58
2022/03/27 13:45:09;;;;;;;13.05;4.80;;;;;;;;;;20917220;28;20193;-61
2022/03/27 13:55:11;;;;;;;12.52;4.13;;;;;;;;;;20917338;28;20071;-61
2022/03/27 14:05:15;;;;;;;17.42;5.20;;;;;;;;;;20916317;28;20049;-59
2022/03/27 14:15:17;;;;;;;17.90;5.20;;;;;;;;;;20914574;28;20151;-57
2022/03/27 14:25:19;;;;;;;21.42;7.43;;;;;;;;;;20914718;28;20400;-58
2022/03/27 14:35:21;;;;;;;26.30;5.97;;;;;;;;;;20913589;28;20048;-57
2022/03/27 14:45:23;;;;;;;24.42;6.68;;;;;;;;;;20912848;28;20401;-57
2022/03/27 15:05:47;;;;;;;23.85;5.90;;;;;;;;;;20912007;28;20141;-58
2022/03/27 15:15:48;;;;;;;20.75;6.88;;;;;;;;;;20910473;28;20048;-57
2022/03/27 15:25:50;;;;;;;26.83;6.15;;;;;;;;;;20910777;28;20063;-59
2022/03/27 15:35:52;;;;;;;27.05;8.80;;;;;;;;;;20911901;28;20045;-58
2022/03/27 15:45:54;;;;;;;40.78;8.75;;;;;;;;;;20923754;28;20071;-58
2022/03/27 15:55:56;;;;;;;25.73;6.80;;;;;;;;;;20926494;28;20087;-54
2022/03/27 16:06:00;;;;;;;29.92;7.28;;;;;;;;;;20926447;28;20064;-59
2022/03/27 16:16:05;;;;;;;29.53;7.37;;;;;;;;;;20924947;28;20073;-59
2022/03/27 16:26:07;;;;;;;27.67;7.18;;;;;;;;;;20925297;28;20512;-59
2022/03/27 16:36:09;;;;;;;27.92;6.72;;;;;;;;;;20925338;28;20507;-59
2022/03/27 16:46:12;;;;;;;28.33;6.78;;;;;;;;;;20922775;28;20053;-57
2022/03/27 16:56:15;;;;;;;25.98;7.65;;;;;;;;;;20922040;28;20045;-58
2022/03/27 17:06:17;;;;;;;22.83;6.18;;;;;;;;;;20922362;28;20413;-58
2022/03/27 17:16:19;;;;;;;19.63;6.55;;;;;;;;;;20919592;28;20044;-57
2022/03/27 17:26:21;;;;;;;22.02;6.57;;;;;;;;;;20919535;28;20057;-55
2022/03/27 17:36:24;;;;;;;17.63;5.35;;;;;;;;;;20919046;28;20099;-58
2022/03/27 17:46:26;;;;;;;16.50;5.75;;;;;;;;;;20917282;28;20059;-57
2022/03/27 17:56:28;;;;;;;20.30;5.60;;;;;;;;;;20917775;28;20045;-58
2022/03/27 18:06:30;;;;;;;16.58;6.60;;;;;;;;;;20917067;28;20056;-57
2022/03/27 18:16:32;;;;;;;16.40;6.00;;;;;;;;;;20916755;28;20083;-51
2022/03/27 18:26:34;;;;;;;12.93;5.13;;;;;;;;;;20914577;28;20057;-56
2022/03/27 18:36:37;;;;;;;21.63;6.28;;;;;;;;;;20914400;28;20075;-54
2022/03/27 18:46:39;;;;;;;33.45;8.50;;;;;;;;;;20913010;28;20148;-58
2022/03/27 18:56:41;;;;;;;28.08;7.05;;;;;;;;;;20914297;28;20541;-58
2022/03/27 19:06:43;;;;;;;22.33;5.78;;;;;;;;;;20912704;28;20524;-54
2022/03/27 19:16:46;;;;;;;20.85;7.45;;;;;;;;;;20911037;28;20214;-56
2022/03/27 19:26:48;;;;;;;24.00;7.35;;;;;;;;;;20911251;28;20056;-59
2022/03/27 19:36:50;;;;;;;24.20;8.98;;;;;;;;;;20909999;28;20049;-57
2022/03/27 19:46:53;;;;;;;32.13;10.43;;;;;;;;;;20909507;28;20057;-58
2022/03/27 19:56:56;;;;;;;23.73;7.80;;;;;;;;;;20911003;28;20053;-57
2022/03/27 20:06:58;;;;;;;21.10;7.63;;;;;;;;;;20909940;28;20049;-58
2022/03/27 20:17:00;;;;;;;19.17;7.15;;;;;;;;;;20910931;28;20053;-58
2022/03/27 20:27:02;;;;;;;19.25;6.78;;;;;;;;;;20913466;28;20053;-56
2022/03/27 20:37:05;;;;;;;21.48;7.40;;;;;;;;;;20924816;28;20059;-58
2022/03/27 20:47:07;;;;;;;26.55;7.93;;;;;;;;;;20923466;28;20053;-59
2022/03/27 20:57:10;;;;;;;21.02;8.00;;;;;;;;;;20924089;28;20073;-58
2022/03/27 21:07:12;;;;;;;21.50;8.18;;;;;;;;;;20922821;28;20048;-59
2022/03/27 21:17:14;;;;;;;28.60;9.68;;;;;;;;;;20922379;28;20415;-55
2022/03/27 21:27:16;;;;;;;29.00;9.13;;;;;;;;;;20920567;28;20072;-58
2022/03/27 21:37:19;;;;;;;19.83;7.28;;;;;;;;;;20919173;28;20081;-56
2022/03/27 21:47:21;;;;;;;21.52;7.85;;;;;;;;;;20918708;28;20084;-55
2022/03/27 21:57:23;;;;;;;21.13;7.05;;;;;;;;;;20918681;28;20128;-57
2022/03/27 22:07:26;;;;;;;22.85;7.70;;;;;;;;;;20917371;28;20420;-56
2022/03/27 22:17:28;;;;;;;16.35;7.35;;;;;;;;;;20916048;28;20045;-57
2022/03/27 22:27:30;;;;;;;23.58;8.15;;;;;;;;;;20915711;28;20060;-58
2022/03/27 22:37:34;;;;;;;22.02;8.73;;;;;;;;;;20915282;28;20521;-57
2022/03/27 22:47:36;;;;;;;22.33;8.93;;;;;;;;;;20912811;28;20576;-57
2022/03/27 22:57:38;;;;;;;25.17;9.15;;;;;;;;;;20913970;28;20049;-57
2022/03/27 23:07:41;;;;;;;20.45;8.40;;;;;;;;;;20914781;28;20409;-58
2022/03/27 23:17:43;;;;;;;21.98;9.25;;;;;;;;;;20912693;28;20048;-55
2022/03/27 23:27:45;;;;;;;24.02;10.13;;;;;;;;;;20911857;28;20398;-56
2022/03/27 23:37:47;;;;;;;17.05;9.02;;;;;;;;;;20911396;28;20045;-58
2022/03/27 23:47:49;;;;;;;25.23;10.00;;;;;;;;;;20911188;28;20064;-58
2022/03/27 23:57:51;;;;;;;20.30;9.35;;;;;;;;;;20910800;28;20049;-60
